createdAt,value
2022-12-15T00:00:14.854Z,0.00
2022-12-15T00:01:17.830Z,0.00
2022-12-15T00:02:17.918Z,0.00
2022-12-15T00:03:14.913Z,0.00
2022-12-15T00:04:14.765Z,0.00
2022-12-15T00:05:14.756Z,0.00
2022-12-15T00:06:14.849Z,0.00
2022-12-15T00:07:14.764Z,0.00
2022-12-15T00:08:14.762Z,0.00
2022-12-15T00:09:16.135Z,0.00
2022-12-15T00:10:14.713Z,0.00
2022-12-15T00:11:14.675Z,0.00
2022-12-15T00:12:14.675Z,0.00
2022-12-15T00:13:14.662Z,0.00
2022-12-15T00:14:14.665Z,0.00
2022-12-15T00:15:14.634Z,0.00
2022-12-15T00:16:14.679Z,0.00
2022-12-15T00:17:14.654Z,0.00
2022-12-15T00:18:14.605Z,0.00
2022-12-15T00:19:14.566Z,0.00
2022-12-15T00:20:14.564Z,0.00
2022-12-15T00:21:17.542Z,0.00
2022-12-15T00:22:17.578Z,0.00
2022-12-15T00:23:14.581Z,0.00
2022-12-15T00:24:14.505Z,0.00
2022-12-15T00:25:14.542Z,0.00
2022-12-15T00:26:14.509Z,0.00
2022-12-15T00:27:14.445Z,0.00
2022-12-15T00:28:14.434Z,0.00
2022-12-15T00:29:14.444Z,0.00
2022-12-15T00:30:14.429Z,0.00
2022-12-15T00:31:14.461Z,0.00
2022-12-15T00:32:14.408Z,0.00
2022-12-15T00:33:14.415Z,0.00
2022-12-15T00:34:14.406Z,0.00
2022-12-15T00:35:14.396Z,0.00
2022-12-15T00:36:14.414Z,0.00
2022-12-15T00:37:14.344Z,0.00
2022-12-15T00:38:14.346Z,0.00
2022-12-15T00:39:14.313Z,0.00
2022-12-15T00:40:14.327Z,0.00
2022-12-15T00:41:17.327Z,0.00
2022-12-15T00:42:17.293Z,0.00
2022-12-15T00:43:14.265Z,0.00
2022-12-15T00:44:18.958Z,0.00
2022-12-15T00:45:15.227Z,0.00
2022-12-15T00:46:14.255Z,0.00
2022-12-15T00:47:14.235Z,0.00
2022-12-15T00:48:14.176Z,0.00
2022-12-15T00:49:14.186Z,0.00
2022-12-15T00:50:14.176Z,0.00
2022-12-15T00:51:14.146Z,0.00
2022-12-15T00:52:14.146Z,0.00
2022-12-15T00:53:14.146Z,0.00
2022-12-15T00:54:18.054Z,0.00
2022-12-15T00:55:14.133Z,0.00
2022-12-15T00:56:14.097Z,0.00
2022-12-15T00:57:14.061Z,0.00
2022-12-15T00:58:14.080Z,0.00
2022-12-15T00:59:14.071Z,0.00
2022-12-15T01:00:14.059Z,0.00
2022-12-15T01:01:17.071Z,0.00
2022-12-15T01:02:17.131Z,0.00
2022-12-15T01:03:14.119Z,0.00
2022-12-15T01:04:14.088Z,0.00
2022-12-15T01:05:14.005Z,0.00
2022-12-15T01:06:13.957Z,0.00
2022-12-15T01:07:13.937Z,0.00
2022-12-15T01:08:13.948Z,0.00
2022-12-15T01:09:13.938Z,0.00
2022-12-15T01:10:13.935Z,0.00
2022-12-15T01:11:13.891Z,0.00
2022-12-15T01:12:13.891Z,0.00
2022-12-15T01:13:13.896Z,0.00
2022-12-15T01:14:13.898Z,0.00
2022-12-15T01:15:13.838Z,0.00
2022-12-15T01:16:13.845Z,0.00
2022-12-15T01:17:13.820Z,0.00
2022-12-15T01:18:13.878Z,0.00
2022-12-15T01:19:13.839Z,0.00
2022-12-15T01:20:13.760Z,0.00
2022-12-15T01:21:16.761Z,0.00
2022-12-15T01:22:16.752Z,0.00
2022-12-15T01:23:13.748Z,0.00
2022-12-15T01:24:13.717Z,0.00
2022-12-15T01:25:13.720Z,0.00
2022-12-15T01:26:13.724Z,0.00
2022-12-15T01:27:13.701Z,0.00
2022-12-15T01:28:13.689Z,0.00
2022-12-15T01:29:13.660Z,0.00
2022-12-15T01:30:13.662Z,0.00
2022-12-15T01:31:13.697Z,0.00
2022-12-15T01:32:13.597Z,0.00
2022-12-15T01:33:13.585Z,0.00
2022-12-15T01:34:13.579Z,0.00
2022-12-15T01:35:13.592Z,0.00
2022-12-15T01:36:13.647Z,0.00
2022-12-15T01:37:13.548Z,0.00
2022-12-15T01:38:13.545Z,0.00
2022-12-15T01:39:13.542Z,0.00
2022-12-15T01:40:13.498Z,0.00
2022-12-15T01:41:16.528Z,0.00
2022-12-15T01:42:16.510Z,0.00
2022-12-15T01:43:13.470Z,0.00
2022-12-15T01:44:13.475Z,0.00
2022-12-15T01:45:13.470Z,0.00
2022-12-15T01:46:13.497Z,0.00
2022-12-15T01:47:13.492Z,0.00
2022-12-15T01:48:13.436Z,0.00
2022-12-15T01:49:13.399Z,0.00
2022-12-15T01:50:13.389Z,0.00
2022-12-15T01:51:13.378Z,0.00
2022-12-15T01:52:13.388Z,0.00
2022-12-15T01:53:13.359Z,0.00
2022-12-15T01:54:13.309Z,0.00
2022-12-15T01:55:13.333Z,0.00
2022-12-15T01:56:13.311Z,0.00
2022-12-15T01:57:13.330Z,0.00
2022-12-15T01:58:13.290Z,0.00
2022-12-15T01:59:13.260Z,0.00
2022-12-15T02:00:13.274Z,0.00
2022-12-15T02:01:16.314Z,0.00
2022-12-15T02:02:16.401Z,0.00
2022-12-15T02:03:13.244Z,0.00
2022-12-15T02:04:13.195Z,0.00
2022-12-15T02:05:13.200Z,0.00
2022-12-15T02:06:13.172Z,0.00
2022-12-15T02:07:13.151Z,0.00
2022-12-15T02:08:13.130Z,0.00
2022-12-15T02:09:13.192Z,0.00
2022-12-15T02:10:13.151Z,0.00
2022-12-15T02:11:13.111Z,0.00
2022-12-15T02:12:13.142Z,0.00
2022-12-15T02:13:13.072Z,0.00
2022-12-15T02:14:13.087Z,0.00
2022-12-15T02:15:13.086Z,0.00
2022-12-15T02:16:13.096Z,0.00
2022-12-15T02:17:13.039Z,0.00
2022-12-15T02:18:13.019Z,0.00
2022-12-15T02:19:12.991Z,0.00
2022-12-15T02:20:13.001Z,0.00
2022-12-15T02:21:15.971Z,0.00
2022-12-15T02:22:15.978Z,0.00
2022-12-15T02:23:12.941Z,0.00
2022-12-15T02:24:12.958Z,0.00
2022-12-15T02:25:12.994Z,0.00
2022-12-15T02:26:12.910Z,0.00
2022-12-15T02:27:12.901Z,0.00
2022-12-15T02:28:12.893Z,0.00
2022-12-15T02:29:12.851Z,0.00
2022-12-15T02:30:12.842Z,0.00
2022-12-15T02:31:12.937Z,0.00
2022-12-15T02:32:12.852Z,0.00
2022-12-15T02:33:12.802Z,0.00
2022-12-15T02:34:12.812Z,0.00
2022-12-15T02:35:12.793Z,0.00
2022-12-15T02:36:12.764Z,0.00
2022-12-15T02:37:12.783Z,0.00
2022-12-15T02:38:12.742Z,0.00
2022-12-15T02:39:12.739Z,0.00
2022-12-15T02:40:12.715Z,0.00
2022-12-15T02:41:15.773Z,0.00
2022-12-15T02:42:15.743Z,0.00
2022-12-15T02:43:12.701Z,0.00
2022-12-15T02:44:12.691Z,0.00
2022-12-15T02:45:12.642Z,0.00
2022-12-15T02:46:12.721Z,0.00
2022-12-15T02:47:12.681Z,0.00
2022-12-15T02:48:12.616Z,0.00
2022-12-15T02:49:12.623Z,0.00
2022-12-15T02:50:12.585Z,0.00
2022-12-15T02:51:12.554Z,0.00
2022-12-15T02:52:12.600Z,0.00
2022-12-15T02:53:12.605Z,0.00
2022-12-15T02:54:12.546Z,0.00
2022-12-15T02:55:12.532Z,0.00
2022-12-15T02:56:12.504Z,0.00
2022-12-15T02:57:12.513Z,0.00
2022-12-15T02:58:12.463Z,0.00
2022-12-15T02:59:12.526Z,0.00
2022-12-15T03:00:12.476Z,0.00
2022-12-15T03:01:15.493Z,0.00
2022-12-15T03:02:15.647Z,0.00
2022-12-15T03:03:12.449Z,0.00
2022-12-15T03:04:12.446Z,0.00
2022-12-15T03:05:12.395Z,0.00
2022-12-15T03:06:12.364Z,0.00
2022-12-15T03:07:12.385Z,0.00
2022-12-15T03:08:12.364Z,0.00
2022-12-15T03:09:12.344Z,0.00
2022-12-15T03:10:12.336Z,0.00
2022-12-15T03:11:12.294Z,0.00
2022-12-15T03:12:12.301Z,0.00
2022-12-15T03:13:12.273Z,0.00
2022-12-15T03:14:12.286Z,0.00
2022-12-15T03:15:12.265Z,0.00
2022-12-15T03:16:12.289Z,0.00
2022-12-15T03:17:12.228Z,0.00
2022-12-15T03:18:12.248Z,0.00
2022-12-15T03:19:12.245Z,0.00
2022-12-15T03:20:12.215Z,0.00
2022-12-15T03:21:15.174Z,0.00
2022-12-15T03:22:15.199Z,0.00
2022-12-15T03:23:12.135Z,0.00
2022-12-15T03:24:12.299Z,0.00
2022-12-15T03:25:12.135Z,0.00
2022-12-15T03:26:12.095Z,0.00
2022-12-15T03:27:12.095Z,0.00
2022-12-15T03:28:12.088Z,0.00
2022-12-15T03:29:12.057Z,0.00
2022-12-15T03:30:12.081Z,0.00
2022-12-15T03:31:12.044Z,0.00
2022-12-15T03:32:12.080Z,0.00
2022-12-15T03:33:12.040Z,0.00
2022-12-15T03:34:12.027Z,0.00
2022-12-15T03:35:12.078Z,0.00
2022-12-15T03:36:11.976Z,0.00
2022-12-15T03:37:11.980Z,0.00
2022-12-15T03:38:11.973Z,0.00
2022-12-15T03:39:11.946Z,0.00
2022-12-15T03:40:11.983Z,0.00
2022-12-15T03:41:14.894Z,0.00
2022-12-15T03:42:14.908Z,0.00
2022-12-15T03:43:11.878Z,0.00
2022-12-15T03:44:11.862Z,0.00
2022-12-15T03:45:11.867Z,0.00
2022-12-15T03:46:11.992Z,0.00
2022-12-15T03:47:11.826Z,0.00
2022-12-15T03:48:11.837Z,0.00
2022-12-15T03:49:11.816Z,0.00
2022-12-15T03:50:11.797Z,0.00
2022-12-15T03:51:11.834Z,0.00
2022-12-15T03:52:11.779Z,0.00
2022-12-15T03:53:11.762Z,0.00
2022-12-15T03:54:11.748Z,0.00
2022-12-15T03:55:11.749Z,0.00
2022-12-15T03:56:11.715Z,0.00
2022-12-15T03:57:11.756Z,0.00
2022-12-15T03:58:11.715Z,0.00
2022-12-15T03:59:11.675Z,0.00
2022-12-15T04:00:11.677Z,0.00
2022-12-15T04:01:14.687Z,0.00
2022-12-15T04:02:14.918Z,0.00
2022-12-15T04:03:11.823Z,0.00
2022-12-15T04:04:11.637Z,0.00
2022-12-15T04:05:11.588Z,0.00
2022-12-15T04:06:11.607Z,0.00
2022-12-15T04:07:11.567Z,0.00
2022-12-15T04:08:11.588Z,0.00
2022-12-15T04:09:11.585Z,0.00
2022-12-15T04:10:11.558Z,0.00
2022-12-15T04:11:11.508Z,0.00
2022-12-15T04:12:11.499Z,0.00
2022-12-15T04:13:11.510Z,0.00
2022-12-15T04:14:11.458Z,0.00
2022-12-15T04:15:11.479Z,0.00
2022-12-15T04:16:14.788Z,0.00
2022-12-15T04:17:12.477Z,0.00
2022-12-15T04:18:11.466Z,0.00
2022-12-15T04:19:11.402Z,0.00
2022-12-15T04:20:11.397Z,0.00
2022-12-15T04:21:14.411Z,0.00
2022-12-15T04:22:17.971Z,0.00
2022-12-15T04:23:11.419Z,0.00
2022-12-15T04:24:11.341Z,0.00
2022-12-15T04:25:11.339Z,0.00
2022-12-15T04:26:11.313Z,0.00
2022-12-15T04:27:11.297Z,0.00
2022-12-15T04:28:11.301Z,0.00
2022-12-15T04:29:11.321Z,0.00
2022-12-15T04:30:11.247Z,0.00
2022-12-15T04:31:11.313Z,0.00
2022-12-15T04:32:11.242Z,0.00
2022-12-15T04:33:11.225Z,0.00
2022-12-15T04:34:11.357Z,0.00
2022-12-15T04:35:11.208Z,0.00
2022-12-15T04:36:11.189Z,0.00
2022-12-15T04:37:11.189Z,0.00
2022-12-15T04:38:11.177Z,0.00
2022-12-15T04:39:11.236Z,0.00
2022-12-15T04:40:11.184Z,0.00
2022-12-15T04:41:14.125Z,0.00
2022-12-15T04:42:14.109Z,0.00
2022-12-15T04:43:11.123Z,0.00
2022-12-15T04:44:11.112Z,0.00
2022-12-15T04:45:15.505Z,0.00
2022-12-15T04:46:12.088Z,0.00
2022-12-15T04:47:11.059Z,0.00
2022-12-15T04:48:11.031Z,0.00
2022-12-15T04:49:11.035Z,0.00
2022-12-15T04:50:11.008Z,0.00
2022-12-15T04:51:11.050Z,0.00
2022-12-15T04:52:10.990Z,0.00
2022-12-15T04:53:10.979Z,0.00
2022-12-15T04:54:10.960Z,0.00
2022-12-15T04:55:10.979Z,0.00
2022-12-15T04:56:16.521Z,0.00
2022-12-15T04:57:11.911Z,0.00
2022-12-15T04:58:10.919Z,0.00
2022-12-15T04:59:10.930Z,0.00
2022-12-15T05:00:10.896Z,0.00
2022-12-15T05:01:13.981Z,0.00
2022-12-15T05:02:14.038Z,0.00
2022-12-15T05:03:15.124Z,0.00
2022-12-15T05:04:11.882Z,0.00
2022-12-15T05:05:10.816Z,0.00
2022-12-15T05:06:10.809Z,0.00
2022-12-15T05:07:10.968Z,0.00
2022-12-15T05:08:10.761Z,0.00
2022-12-15T05:09:10.820Z,0.00
2022-12-15T05:10:14.913Z,0.00
2022-12-15T05:11:10.721Z,0.00
2022-12-15T05:12:10.734Z,0.00
2022-12-15T05:13:10.748Z,0.00
2022-12-15T05:14:10.681Z,0.00
2022-12-15T05:15:10.702Z,0.00
2022-12-15T05:16:10.767Z,0.00
2022-12-15T05:17:10.702Z,0.00
2022-12-15T05:18:10.699Z,0.00
2022-12-15T05:19:10.652Z,0.00
2022-12-15T05:20:10.632Z,0.00
2022-12-15T05:21:13.611Z,0.00
2022-12-15T05:22:13.618Z,0.00
2022-12-15T05:23:10.601Z,0.00
2022-12-15T05:24:10.604Z,0.00
2022-12-15T05:25:10.572Z,0.00
2022-12-15T05:26:10.550Z,0.00
2022-12-15T05:27:10.532Z,0.00
2022-12-15T05:28:10.513Z,0.00
2022-12-15T05:29:10.552Z,0.00
2022-12-15T05:30:10.509Z,0.00
2022-12-15T05:31:10.519Z,0.00
2022-12-15T05:32:10.466Z,0.00
2022-12-15T05:33:10.452Z,0.00
2022-12-15T05:34:10.423Z,0.00
2022-12-15T05:35:10.452Z,0.00
2022-12-15T05:36:10.428Z,0.00
2022-12-15T05:37:10.412Z,0.00
2022-12-15T05:38:10.402Z,0.00
2022-12-15T05:39:10.382Z,0.00
2022-12-15T05:40:10.455Z,0.00
2022-12-15T05:41:13.363Z,0.00
2022-12-15T05:42:13.372Z,0.00
2022-12-15T05:43:10.342Z,0.00
2022-12-15T05:44:10.301Z,0.00
2022-12-15T05:45:10.384Z,0.00
2022-12-15T05:46:10.333Z,0.00
2022-12-15T05:47:10.313Z,0.00
2022-12-15T05:48:10.276Z,0.00
2022-12-15T05:49:10.252Z,0.00
2022-12-15T05:50:10.235Z,0.00
2022-12-15T05:51:10.210Z,0.00
2022-12-15T05:52:10.223Z,0.00
2022-12-15T05:53:10.210Z,0.00
2022-12-15T05:54:10.184Z,0.00
2022-12-15T05:55:10.174Z,0.00
2022-12-15T05:56:10.173Z,0.00
2022-12-15T05:57:10.170Z,0.00
2022-12-15T05:58:10.115Z,0.00
2022-12-15T05:59:10.102Z,0.00
2022-12-15T06:00:10.095Z,0.00
2022-12-15T06:01:13.132Z,0.00
2022-12-15T06:02:13.175Z,0.00
2022-12-15T06:03:10.183Z,0.00
2022-12-15T06:04:10.117Z,0.00
2022-12-15T06:05:10.096Z,0.00
2022-12-15T06:06:10.005Z,0.00
2022-12-15T06:07:10.005Z,0.00
2022-12-15T06:08:10.042Z,0.00
2022-12-15T06:09:09.994Z,0.00
2022-12-15T06:10:09.963Z,0.00
2022-12-15T06:11:10.012Z,0.00
2022-12-15T06:12:09.953Z,0.00
2022-12-15T06:13:10.005Z,0.00
2022-12-15T06:14:09.946Z,0.00
2022-12-15T06:15:09.987Z,0.00
2022-12-15T06:16:09.985Z,0.00
2022-12-15T06:17:09.917Z,0.00
2022-12-15T06:18:09.896Z,0.00
2022-12-15T06:19:09.913Z,0.00
2022-12-15T06:20:09.842Z,0.00
2022-12-15T06:21:12.844Z,0.00
2022-12-15T06:22:12.813Z,0.00
2022-12-15T06:23:09.806Z,0.00
2022-12-15T06:24:09.955Z,0.00
2022-12-15T06:25:09.794Z,0.00
2022-12-15T06:26:09.765Z,0.00
2022-12-15T06:27:09.793Z,0.00
2022-12-15T06:28:09.755Z,0.00
2022-12-15T06:29:09.714Z,0.00
2022-12-15T06:30:09.735Z,0.00
2022-12-15T06:31:09.784Z,0.00
2022-12-15T06:32:09.704Z,0.00
2022-12-15T06:33:09.680Z,0.00
2022-12-15T06:34:09.668Z,0.00
2022-12-15T06:35:09.732Z,0.00
2022-12-15T06:36:09.644Z,0.00
2022-12-15T06:37:09.608Z,0.00
2022-12-15T06:38:09.607Z,0.00
2022-12-15T06:39:09.591Z,0.00
2022-12-15T06:40:09.607Z,0.00
2022-12-15T06:41:12.615Z,0.00
2022-12-15T06:42:12.736Z,0.00
2022-12-15T06:43:09.555Z,0.00
2022-12-15T06:44:09.555Z,0.00
2022-12-15T06:45:09.573Z,0.00
2022-12-15T06:46:09.592Z,0.00
2022-12-15T06:47:09.564Z,0.00
2022-12-15T06:48:09.505Z,0.00
2022-12-15T06:49:09.467Z,0.00
2022-12-15T06:50:09.485Z,0.00
2022-12-15T06:51:16.430Z,0.00
2022-12-15T06:52:10.466Z,0.00
2022-12-15T06:53:09.417Z,0.00
2022-12-15T06:54:09.405Z,0.00
2022-12-15T06:55:09.376Z,0.00
2022-12-15T06:56:09.386Z,0.00
2022-12-15T06:57:09.377Z,0.00
2022-12-15T06:58:09.329Z,0.00
2022-12-15T06:59:09.326Z,0.00
2022-12-15T07:00:09.317Z,0.00
2022-12-15T07:01:12.317Z,0.00
2022-12-15T07:02:12.539Z,0.00
2022-12-15T07:03:09.402Z,0.00
2022-12-15T07:04:09.399Z,0.00
2022-12-15T07:05:09.295Z,0.00
2022-12-15T07:06:09.255Z,0.00
2022-12-15T07:07:09.283Z,0.00
2022-12-15T07:08:09.188Z,0.00
2022-12-15T07:09:09.197Z,0.00
2022-12-15T07:10:09.208Z,0.00
2022-12-15T07:11:09.171Z,0.00
2022-12-15T07:12:09.157Z,0.00
2022-12-15T07:13:09.169Z,0.00
2022-12-15T07:14:09.118Z,0.00
2022-12-15T07:15:09.177Z,0.00
2022-12-15T07:16:09.147Z,0.00
2022-12-15T07:17:09.097Z,0.00
2022-12-15T07:18:09.056Z,0.00
2022-12-15T07:19:09.076Z,0.00
2022-12-15T07:20:09.049Z,0.00
2022-12-15T07:21:12.124Z,0.00
2022-12-15T07:22:12.032Z,0.00
2022-12-15T07:23:09.028Z,0.00
2022-12-15T07:24:09.291Z,0.00
2022-12-15T07:25:08.988Z,0.00
2022-12-15T07:26:11.598Z,0.00
2022-12-15T07:27:08.992Z,0.00
2022-12-15T07:28:08.938Z,0.00
2022-12-15T07:29:08.963Z,5.62
2022-12-15T07:30:08.918Z,5.62
2022-12-15T07:31:08.960Z,5.62
2022-12-15T07:32:08.960Z,5.62
2022-12-15T07:33:08.888Z,5.62
2022-12-15T07:34:08.871Z,5.62
2022-12-15T07:35:08.868Z,5.62
2022-12-15T07:36:08.834Z,5.62
2022-12-15T07:37:08.848Z,5.62
2022-12-15T07:38:08.889Z,5.62
2022-12-15T07:39:08.837Z,5.62
2022-12-15T07:40:08.799Z,5.62
2022-12-15T07:41:11.788Z,11.25
2022-12-15T07:42:11.783Z,11.25
2022-12-15T07:43:08.929Z,11.25
2022-12-15T07:44:08.741Z,11.25
2022-12-15T07:45:08.749Z,11.25
2022-12-15T07:46:08.807Z,16.88
2022-12-15T07:47:08.711Z,16.88
2022-12-15T07:48:08.719Z,16.88
2022-12-15T07:49:08.712Z,16.88
2022-12-15T07:50:08.665Z,16.88
2022-12-15T07:51:13.853Z,16.88
2022-12-15T07:52:09.629Z,16.88
2022-12-15T07:53:08.622Z,16.88
2022-12-15T07:54:08.636Z,16.88
2022-12-15T07:55:08.670Z,16.88
2022-12-15T07:56:09.812Z,16.88
2022-12-15T07:57:08.625Z,16.88
2022-12-15T07:58:08.570Z,16.88
2022-12-15T07:59:08.540Z,16.88
2022-12-15T08:00:08.535Z,16.88
2022-12-15T08:01:11.682Z,16.88
2022-12-15T08:02:11.757Z,22.50
2022-12-15T08:03:08.653Z,22.50
2022-12-15T08:04:08.532Z,22.50
2022-12-15T08:05:08.529Z,16.88
2022-12-15T08:06:08.481Z,16.88
2022-12-15T08:07:08.495Z,16.88
2022-12-15T08:08:12.288Z,16.88
2022-12-15T08:09:09.469Z,16.88
2022-12-15T08:10:08.420Z,16.88
2022-12-15T08:11:08.435Z,16.88
2022-12-15T08:12:08.401Z,22.50
2022-12-15T08:13:08.411Z,22.50
2022-12-15T08:14:13.493Z,22.50
2022-12-15T08:15:09.481Z,22.50
2022-12-15T08:16:08.385Z,22.50
2022-12-15T08:17:08.345Z,22.50
2022-12-15T08:18:08.369Z,22.50
2022-12-15T08:19:08.297Z,22.50
2022-12-15T08:20:10.237Z,22.50
2022-12-15T08:21:11.296Z,16.88
2022-12-15T08:22:11.312Z,16.88
2022-12-15T08:23:08.282Z,16.88
2022-12-15T08:24:08.251Z,16.88
2022-12-15T08:25:08.252Z,16.88
2022-12-15T08:26:08.255Z,22.50
2022-12-15T08:27:08.282Z,22.50
2022-12-15T08:28:08.183Z,22.50
2022-12-15T08:30:09.210Z,28.12
2022-12-15T08:31:08.162Z,33.75
2022-12-15T08:32:08.278Z,39.38
2022-12-15T08:33:08.182Z,45.00
2022-12-15T08:34:08.123Z,50.62
2022-12-15T08:35:20.067Z,50.62
2022-12-15T08:36:09.124Z,45.00
2022-12-15T08:37:08.130Z,39.38
2022-12-15T08:38:08.085Z,39.38
2022-12-15T08:39:08.114Z,33.75
2022-12-15T08:40:08.043Z,33.75
2022-12-15T08:41:11.075Z,33.75
2022-12-15T08:42:11.025Z,39.38
2022-12-15T08:43:08.065Z,39.38
2022-12-15T08:44:08.024Z,45.00
2022-12-15T08:45:07.975Z,45.00
2022-12-15T08:46:07.999Z,50.62
2022-12-15T08:47:07.982Z,56.25
2022-12-15T08:48:07.969Z,61.88
2022-12-15T08:49:07.936Z,61.88
2022-12-15T08:50:07.944Z,67.50
2022-12-15T08:51:07.919Z,73.12
2022-12-15T08:52:07.917Z,73.12
2022-12-15T08:53:30.352Z,73.12
2022-12-15T08:54:08.867Z,73.12
2022-12-15T08:55:07.891Z,73.12
2022-12-15T08:56:07.967Z,67.50
2022-12-15T08:57:07.955Z,61.88
2022-12-15T08:58:07.905Z,56.25
2022-12-15T08:59:07.875Z,61.88
2022-12-15T09:00:07.866Z,61.88
2022-12-15T09:01:10.942Z,61.88
2022-12-15T09:02:22.471Z,67.50
2022-12-15T09:03:13.778Z,67.50
2022-12-15T09:04:08.299Z,61.88
2022-12-15T09:05:07.873Z,61.88
2022-12-15T09:06:08.100Z,56.25
2022-12-15T09:07:10.061Z,50.62
2022-12-15T09:08:07.869Z,56.25
2022-12-15T09:09:07.881Z,56.25
2022-12-15T09:10:07.727Z,56.25
2022-12-15T09:11:07.744Z,61.88
2022-12-15T09:12:07.792Z,67.50
2022-12-15T09:13:07.699Z,61.88
2022-12-15T09:14:07.762Z,61.88
2022-12-15T09:15:07.702Z,61.88
2022-12-15T09:16:09.873Z,56.25
2022-12-15T09:17:07.728Z,50.62
2022-12-15T09:18:07.609Z,45.00
2022-12-15T09:19:07.601Z,45.00
2022-12-15T09:20:07.548Z,50.62
2022-12-15T09:21:10.505Z,56.25
2022-12-15T09:22:10.543Z,56.25
2022-12-15T09:23:07.448Z,56.25
2022-12-15T09:24:07.497Z,56.25
2022-12-15T09:25:07.525Z,56.25
2022-12-15T09:26:15.043Z,56.25
2022-12-15T09:27:07.358Z,56.25
2022-12-15T09:28:07.346Z,61.88
2022-12-15T09:29:07.335Z,61.88
2022-12-15T09:30:07.327Z,56.25
2022-12-15T09:31:07.411Z,56.25
2022-12-15T09:32:13.633Z,56.25
2022-12-15T09:33:08.284Z,56.25
2022-12-15T09:34:07.270Z,56.25
2022-12-15T09:35:07.257Z,56.25
2022-12-15T09:36:07.246Z,56.25
2022-12-15T09:37:07.256Z,56.25
2022-12-15T09:38:07.220Z,56.25
2022-12-15T09:39:07.198Z,56.25
2022-12-15T09:40:07.190Z,56.25
2022-12-15T09:41:10.174Z,61.88
2022-12-15T09:42:10.341Z,61.88
2022-12-15T09:43:33.363Z,67.50
2022-12-15T09:44:08.148Z,73.12
2022-12-15T09:45:07.119Z,73.12
2022-12-15T09:46:07.149Z,73.12
2022-12-15T09:47:07.117Z,67.50
2022-12-15T09:48:07.112Z,67.50
2022-12-15T09:49:07.097Z,67.50
2022-12-15T09:50:07.061Z,61.88
2022-12-15T09:51:07.046Z,61.88
2022-12-15T09:52:11.043Z,61.88
2022-12-15T09:53:23.152Z,61.88
2022-12-15T09:54:08.049Z,61.88
2022-12-15T09:55:07.068Z,67.50
2022-12-15T09:56:06.990Z,67.50
2022-12-15T09:57:06.969Z,67.50
2022-12-15T09:58:10.939Z,73.12
2022-12-15T09:59:06.939Z,73.12
2022-12-15T10:00:06.942Z,78.75
2022-12-15T10:01:09.931Z,78.75
2022-12-15T10:02:10.037Z,84.38
2022-12-15T10:03:07.081Z,90.00
2022-12-15T10:04:06.946Z,95.62
2022-12-15T10:05:06.880Z,84.38
2022-12-15T10:06:24.880Z,78.75
2022-12-15T10:07:07.840Z,78.75
2022-12-15T10:08:06.829Z,78.75
2022-12-15T10:09:06.815Z,73.12
2022-12-15T10:10:06.828Z,78.75
2022-12-15T10:11:06.794Z,78.75
2022-12-15T10:12:06.781Z,78.75
2022-12-15T10:13:06.761Z,84.38
2022-12-15T10:14:06.754Z,78.75
2022-12-15T10:15:06.763Z,78.75
2022-12-15T10:16:06.757Z,78.75
2022-12-15T10:17:06.713Z,78.75
2022-12-15T10:18:06.697Z,78.75
2022-12-15T10:19:06.686Z,78.75
2022-12-15T10:20:06.740Z,78.75
2022-12-15T10:21:09.652Z,78.75
2022-12-15T10:22:09.656Z,78.75
2022-12-15T10:23:06.736Z,78.75
2022-12-15T10:24:06.667Z,78.75
2022-12-15T10:25:11.039Z,78.75
2022-12-15T10:26:07.644Z,73.12
2022-12-15T10:27:06.585Z,73.12
2022-12-15T10:28:06.566Z,67.50
2022-12-15T10:29:06.557Z,67.50
2022-12-15T10:30:06.596Z,67.50
2022-12-15T10:31:06.579Z,67.50
2022-12-15T10:32:06.542Z,73.12
2022-12-15T10:33:06.493Z,73.12
2022-12-15T10:34:06.483Z,73.12
2022-12-15T10:35:06.535Z,78.75
2022-12-15T10:36:06.462Z,78.75
2022-12-15T10:37:06.484Z,78.75
2022-12-15T10:38:06.434Z,84.38
2022-12-15T10:39:06.456Z,84.38
2022-12-15T10:40:06.407Z,90.00
2022-12-15T10:41:09.385Z,84.38
2022-12-15T10:42:09.427Z,84.38
2022-12-15T10:43:06.364Z,78.75
2022-12-15T10:44:06.355Z,78.75
2022-12-15T10:45:06.366Z,78.75
2022-12-15T10:46:06.489Z,84.38
2022-12-15T10:47:06.320Z,84.38
2022-12-15T10:48:06.312Z,90.00
2022-12-15T10:49:06.286Z,95.62
2022-12-15T10:50:06.275Z,84.38
2022-12-15T10:51:06.259Z,78.75
2022-12-15T10:52:06.275Z,78.75
2022-12-15T10:53:06.262Z,78.75
2022-12-15T10:54:06.228Z,84.38
2022-12-15T10:55:06.207Z,90.00
2022-12-15T10:56:06.199Z,90.00
2022-12-15T10:57:06.187Z,95.62
2022-12-15T10:58:06.200Z,118.12
2022-12-15T10:59:06.149Z,95.62
2022-12-15T11:00:06.137Z,90.00
2022-12-15T11:01:09.280Z,90.00
2022-12-15T11:02:09.272Z,90.00
2022-12-15T11:03:06.280Z,90.00
2022-12-15T11:04:06.271Z,90.00
2022-12-15T11:05:06.077Z,90.00
2022-12-15T11:06:06.070Z,90.00
2022-12-15T11:07:06.055Z,90.00
2022-12-15T11:08:10.685Z,90.00
2022-12-15T11:09:07.020Z,95.62
2022-12-15T11:10:06.007Z,95.62
2022-12-15T11:11:07.833Z,118.12
2022-12-15T11:12:06.026Z,101.25
2022-12-15T11:13:05.972Z,101.25
2022-12-15T11:14:05.968Z,101.25
2022-12-15T11:15:05.942Z,123.75
2022-12-15T11:16:05.928Z,101.25
2022-12-15T11:17:05.941Z,90.00
2022-12-15T11:18:05.917Z,90.00
2022-12-15T11:19:05.979Z,90.00
2022-12-15T11:20:05.924Z,90.00
2022-12-15T11:21:08.900Z,90.00
2022-12-15T11:22:08.870Z,95.62
2022-12-15T11:23:05.882Z,95.62
2022-12-15T11:24:05.899Z,118.12
2022-12-15T11:25:05.812Z,118.12
2022-12-15T11:26:07.265Z,112.50
2022-12-15T11:27:05.790Z,112.50
2022-12-15T11:28:05.780Z,106.88
2022-12-15T11:29:05.764Z,106.88
2022-12-15T11:30:05.758Z,112.50
2022-12-15T11:31:05.739Z,112.50
2022-12-15T11:32:07.506Z,112.50
2022-12-15T11:33:05.712Z,118.12
2022-12-15T11:34:05.702Z,118.12
2022-12-15T11:35:05.683Z,123.75
2022-12-15T11:36:05.694Z,118.12
2022-12-15T11:37:05.673Z,123.75
2022-12-15T11:38:05.673Z,123.75
2022-12-15T11:39:05.676Z,123.75
2022-12-15T11:40:05.623Z,123.75
2022-12-15T11:41:08.608Z,123.75
2022-12-15T11:42:08.674Z,101.25
2022-12-15T11:43:05.580Z,106.88
2022-12-15T11:44:06.650Z,118.12
2022-12-15T11:45:05.552Z,112.50
2022-12-15T11:46:05.543Z,112.50
2022-12-15T11:47:05.522Z,90.00
2022-12-15T11:48:05.542Z,112.50
2022-12-15T11:49:05.556Z,118.12
2022-12-15T11:50:05.496Z,112.50
2022-12-15T11:51:05.482Z,90.00
2022-12-15T11:52:05.469Z,84.38
2022-12-15T11:53:05.484Z,84.38
2022-12-15T11:54:05.434Z,95.62
2022-12-15T11:55:05.433Z,106.88
2022-12-15T11:56:05.412Z,95.62
2022-12-15T11:57:05.393Z,106.88
2022-12-15T11:58:05.383Z,112.50
2022-12-15T11:59:05.393Z,112.50
2022-12-15T12:00:05.364Z,123.75
2022-12-15T12:01:08.342Z,123.75
2022-12-15T12:02:08.412Z,123.75
2022-12-15T12:03:05.396Z,123.75
2022-12-15T12:04:05.334Z,123.75
2022-12-15T12:05:05.283Z,123.75
2022-12-15T12:06:05.280Z,101.25
2022-12-15T12:07:05.265Z,95.62
2022-12-15T12:08:05.253Z,90.00
2022-12-15T12:09:05.282Z,95.62
2022-12-15T12:10:05.258Z,84.38
2022-12-15T12:11:05.267Z,84.38
2022-12-15T12:12:05.198Z,90.00
2022-12-15T12:13:05.182Z,118.12
2022-12-15T12:14:09.671Z,95.62
2022-12-15T12:15:06.196Z,84.38
2022-12-15T12:16:05.135Z,84.38
2022-12-15T12:17:05.248Z,78.75
2022-12-15T12:18:05.124Z,78.75
2022-12-15T12:19:05.150Z,78.75
2022-12-15T12:20:11.050Z,78.75
2022-12-15T12:21:09.130Z,78.75
2022-12-15T12:22:08.086Z,78.75
2022-12-15T12:23:05.121Z,78.75
2022-12-15T12:24:05.034Z,78.75
2022-12-15T12:25:05.264Z,78.75
2022-12-15T12:26:05.047Z,90.00
2022-12-15T12:27:05.091Z,78.75
2022-12-15T12:28:05.048Z,84.38
2022-12-15T12:29:05.029Z,90.00
2022-12-15T12:30:04.996Z,78.75
2022-12-15T12:31:04.969Z,73.12
2022-12-15T12:32:05.454Z,73.12
2022-12-15T12:33:04.919Z,78.75
2022-12-15T12:34:05.001Z,78.75
2022-12-15T12:35:30.655Z,78.75
2022-12-15T12:36:05.889Z,73.12
2022-12-15T12:37:04.890Z,73.12
2022-12-15T12:38:05.164Z,67.50
2022-12-15T12:39:04.900Z,67.50
2022-12-15T12:40:04.829Z,73.12
2022-12-15T12:41:07.836Z,90.00
2022-12-15T12:42:07.890Z,95.62
2022-12-15T12:43:07.361Z,101.25
2022-12-15T12:44:05.760Z,95.62
2022-12-15T12:45:04.751Z,73.12
2022-12-15T12:46:04.764Z,67.50
2022-12-15T12:47:04.727Z,67.50
2022-12-15T12:48:04.719Z,61.88
2022-12-15T12:49:04.701Z,61.88
2022-12-15T12:50:04.679Z,61.88
2022-12-15T12:51:04.718Z,61.88
2022-12-15T12:52:04.650Z,61.88
2022-12-15T12:53:04.647Z,61.88
2022-12-15T12:54:04.629Z,61.88
2022-12-15T12:55:08.173Z,61.88
2022-12-15T12:56:05.638Z,61.88
2022-12-15T12:57:04.596Z,61.88
2022-12-15T12:58:04.585Z,61.88
2022-12-15T12:59:04.563Z,56.25
2022-12-15T13:00:04.543Z,56.25
2022-12-15T13:01:07.763Z,56.25
2022-12-15T13:02:07.661Z,56.25
2022-12-15T13:03:04.557Z,56.25
2022-12-15T13:04:04.492Z,56.25
2022-12-15T13:05:04.493Z,56.25
2022-12-15T13:06:04.464Z,56.25
2022-12-15T13:07:06.809Z,56.25